sensor_id;sensor_type;location;lat;lon;timestamp;temperature;humidity
15937;DHT22;9163;48.818;8.976;2023-04-03T00:00:13;2.80;99.90
15937;DHT22;9163;48.818;8.976;2023-04-03T00:02:40;2.70;99.90
15937;DHT22;9163;48.818;8.976;2023-04-03T00:05:08;2.70;99.90
15937;DHT22;9163;48.818;8.976;2023-04-03T00:07:35;2.70;99.90
15937;DHT22;9163;48.818;8.976;2023-04-03T00:10:03;2.60;99.90
15937;DHT22;9163;48.818;8.976;2023-04-03T00:12:30;2.70;99.90
15937;DHT22;9163;48.818;8.976;2023-04-03T00:14:59;2.70;99.90
15937;DHT22;9163;48.818;8.976;2023-04-03T00:17:26;2.70;99.90
15937;DHT22;9163;48.818;8.976;2023-04-03T00:19:53;2.60;99.90
15937;DHT22;9163;48.818;8.976;2023-04-03T00:22:20;2.60;99.90
15937;DHT22;9163;48.818;8.976;2023-04-03T00:24:48;2.60;99.90
15937;DHT22;9163;48.818;8.976;2023-04-03T00:27:15;2.60;99.90
15937;DHT22;9163;48.818;8.976;2023-04-03T00:29:42;2.60;99.90
15937;DHT22;9163;48.818;8.976;2023-04-03T00:32:11;2.60;99.90
15937;DHT22;9163;48.818;8.976;2023-04-03T00:34:38;2.50;99.90
15937;DHT22;9163;48.818;8.976;2023-04-03T00:37:05;2.50;99.90
15937;DHT22;9163;48.818;8.976;2023-04-03T00:39:33;2.50;99.90
15937;DHT22;9163;48.818;8.976;2023-04-03T00:42:00;2.50;99.90
15937;DHT22;9163;48.818;8.976;2023-04-03T00:47:30;2.50;99.90
15937;DHT22;9163;48.818;8.976;2023-04-03T00:49:58;2.40;99.90
15937;DHT22;9163;48.818;8.976;2023-04-03T00:52:28;2.40;99.90
15937;DHT22;9163;48.818;8.976;2023-04-03T00:54:59;2.30;99.90
15937;DHT22;9163;48.818;8.976;2023-04-03T00:57:29;2.30;99.90
15937;DHT22;9163;48.818;8.976;2023-04-03T01:00:01;2.30;99.90
15937;DHT22;9163;48.818;8.976;2023-04-03T01:02:31;2.30;99.90
15937;DHT22;9163;48.818;8.976;2023-04-03T01:04:59;2.20;99.90
15937;DHT22;9163;48.818;8.976;2023-04-03T01:07:29;2.20;99.90
15937;DHT22;9163;48.818;8.976;2023-04-03T01:09:58;2.10;99.90
15937;DHT22;9163;48.818;8.976;2023-04-03T01:12:29;2.10;99.90
15937;DHT22;9163;48.818;8.976;2023-04-03T01:14:59;2.10;99.90
15937;DHT22;9163;48.818;8.976;2023-04-03T01:17:28;2.00;99.90
15937;DHT22;9163;48.818;8.976;2023-04-03T01:23:01;2.00;99.90
15937;DHT22;9163;48.818;8.976;2023-04-03T01:25:33;2.00;99.90
15937;DHT22;9163;48.818;8.976;2023-04-03T01:28:01;1.90;99.90
15937;DHT22;9163;48.818;8.976;2023-04-03T01:30:32;1.90;99.90
15937;DHT22;9163;48.818;8.976;2023-04-03T01:33:01;1.90;99.90
15937;DHT22;9163;48.818;8.976;2023-04-03T01:35:28;1.90;99.90
15937;DHT22;9163;48.818;8.976;2023-04-03T01:37:55;1.90;99.90
15937;DHT22;9163;48.818;8.976;2023-04-03T01:40:23;1.80;99.90
15937;DHT22;9163;48.818;8.976;2023-04-03T01:42:50;1.80;99.90
15937;DHT22;9163;48.818;8.976;2023-04-03T01:45:17;1.80;99.90
15937;DHT22;9163;48.818;8.976;2023-04-03T01:47:44;1.80;99.90
15937;DHT22;9163;48.818;8.976;2023-04-03T01:50:13;1.80;99.90
15937;DHT22;9163;48.818;8.976;2023-04-03T01:52:40;1.80;99.90
15937;DHT22;9163;48.818;8.976;2023-04-03T01:55:08;1.80;99.90
15937;DHT22;9163;48.818;8.976;2023-04-03T01:57:36;1.80;99.90
15937;DHT22;9163;48.818;8.976;2023-04-03T02:00:04;1.80;99.90
15937;DHT22;9163;48.818;8.976;2023-04-03T02:02:31;1.80;99.90
15937;DHT22;9163;48.818;8.976;2023-04-03T02:04:58;1.80;99.90
15937;DHT22;9163;48.818;8.976;2023-04-03T02:07:27;1.80;99.90
15937;DHT22;9163;48.818;8.976;2023-04-03T02:09:54;1.80;99.90
15937;DHT22;9163;48.818;8.976;2023-04-03T02:12:21;1.80;99.90
15937;DHT22;9163;48.818;8.976;2023-04-03T02:14:48;1.80;99.90
15937;DHT22;9163;48.818;8.976;2023-04-03T02:17:16;1.80;99.90
15937;DHT22;9163;48.818;8.976;2023-04-03T02:19:43;1.80;99.90
15937;DHT22;9163;48.818;8.976;2023-04-03T02:22:10;1.80;99.90
15937;DHT22;9163;48.818;8.976;2023-04-03T02:24:39;1.80;99.90
15937;DHT22;9163;48.818;8.976;2023-04-03T02:27:07;1.80;99.90
15937;DHT22;9163;48.818;8.976;2023-04-03T02:29:34;1.80;99.90
15937;DHT22;9163;48.818;8.976;2023-04-03T02:32:01;1.80;99.90
15937;DHT22;9163;48.818;8.976;2023-04-03T02:34:29;1.90;99.90
15937;DHT22;9163;48.818;8.976;2023-04-03T02:36:56;1.90;99.90
15937;DHT22;9163;48.818;8.976;2023-04-03T02:39:23;1.90;99.90
15937;DHT22;9163;48.818;8.976;2023-04-03T02:41:52;1.90;99.90
15937;DHT22;9163;48.818;8.976;2023-04-03T02:44:19;1.90;99.90
15937;DHT22;9163;48.818;8.976;2023-04-03T02:46:46;1.90;99.90
15937;DHT22;9163;48.818;8.976;2023-04-03T02:49:13;1.90;99.90
15937;DHT22;9163;48.818;8.976;2023-04-03T02:51:41;1.90;99.90
15937;DHT22;9163;48.818;8.976;2023-04-03T02:54:08;1.90;99.90
15937;DHT22;9163;48.818;8.976;2023-04-03T02:56:36;1.90;99.90
15937;DHT22;9163;48.818;8.976;2023-04-03T02:59:04;1.90;99.90
15937;DHT22;9163;48.818;8.976;2023-04-03T03:01:32;1.90;99.90
15937;DHT22;9163;48.818;8.976;2023-04-03T03:03:59;1.90;99.90
15937;DHT22;9163;48.818;8.976;2023-04-03T03:06:27;1.90;99.90
15937;DHT22;9163;48.818;8.976;2023-04-03T03:08:54;1.90;99.90
15937;DHT22;9163;48.818;8.976;2023-04-03T03:11:21;1.90;99.90
15937;DHT22;9163;48.818;8.976;2023-04-03T03:13:49;1.90;99.90
15937;DHT22;9163;48.818;8.976;2023-04-03T03:16:17;1.80;99.90
15937;DHT22;9163;48.818;8.976;2023-04-03T03:18:44;1.80;99.90
15937;DHT22;9163;48.818;8.976;2023-04-03T03:21:12;1.80;99.90
15937;DHT22;9163;48.818;8.976;2023-04-03T03:23:39;1.80;99.90
15937;DHT22;9163;48.818;8.976;2023-04-03T03:26:09;1.80;99.90
15937;DHT22;9163;48.818;8.976;2023-04-03T03:28:37;1.70;99.90
15937;DHT22;9163;48.818;8.976;2023-04-03T03:31:05;1.80;99.90
15937;DHT22;9163;48.818;8.976;2023-04-03T03:33:34;1.80;99.90
15937;DHT22;9163;48.818;8.976;2023-04-03T03:36:01;1.70;99.90
15937;DHT22;9163;48.818;8.976;2023-04-03T03:38:29;1.80;99.90
15937;DHT22;9163;48.818;8.976;2023-04-03T03:40:56;1.80;99.90
15937;DHT22;9163;48.818;8.976;2023-04-03T03:43:23;1.80;99.90
15937;DHT22;9163;48.818;8.976;2023-04-03T03:45:51;1.90;99.90
15937;DHT22;9163;48.818;8.976;2023-04-03T03:48:19;1.90;99.90
15937;DHT22;9163;48.818;8.976;2023-04-03T03:50:48;2.00;99.90
15937;DHT22;9163;48.818;8.976;2023-04-03T03:53:16;1.90;99.90
15937;DHT22;9163;48.818;8.976;2023-04-03T03:55:43;1.90;99.90
15937;DHT22;9163;48.818;8.976;2023-04-03T03:58:10;1.90;99.90
15937;DHT22;9163;48.818;8.976;2023-04-03T04:00:38;2.00;99.90
15937;DHT22;9163;48.818;8.976;2023-04-03T04:03:05;2.00;99.90
15937;DHT22;9163;48.818;8.976;2023-04-03T04:05:32;1.90;99.90
15937;DHT22;9163;48.818;8.976;2023-04-03T04:08:01;2.00;99.90
15937;DHT22;9163;48.818;8.976;2023-04-03T04:10:28;1.90;99.90
15937;DHT22;9163;48.818;8.976;2023-04-03T04:12:55;1.90;99.90
15937;DHT22;9163;48.818;8.976;2023-04-03T04:15:22;2.00;99.90
15937;DHT22;9163;48.818;8.976;2023-04-03T04:17:51;2.00;99.90
15937;DHT22;9163;48.818;8.976;2023-04-03T04:20:19;2.00;99.90
15937;DHT22;9163;48.818;8.976;2023-04-03T04:22:46;2.00;99.90
15937;DHT22;9163;48.818;8.976;2023-04-03T04:25:15;2.00;99.90
15937;DHT22;9163;48.818;8.976;2023-04-03T04:27:42;2.00;99.90
15937;DHT22;9163;48.818;8.976;2023-04-03T04:30:10;2.10;99.90
15937;DHT22;9163;48.818;8.976;2023-04-03T04:32:38;2.00;99.90
15937;DHT22;9163;48.818;8.976;2023-04-03T04:35:06;2.10;99.90
15937;DHT22;9163;48.818;8.976;2023-04-03T04:37:33;2.00;99.90
15937;DHT22;9163;48.818;8.976;2023-04-03T04:40:00;2.00;99.90
15937;DHT22;9163;48.818;8.976;2023-04-03T04:42:29;2.10;99.90
15937;DHT22;9163;48.818;8.976;2023-04-03T04:44:56;2.10;99.90
15937;DHT22;9163;48.818;8.976;2023-04-03T04:47:23;2.10;99.90
15937;DHT22;9163;48.818;8.976;2023-04-03T04:49:51;2.20;99.90
15937;DHT22;9163;48.818;8.976;2023-04-03T04:52:18;2.10;99.90
15937;DHT22;9163;48.818;8.976;2023-04-03T04:54:45;2.10;99.90
15937;DHT22;9163;48.818;8.976;2023-04-03T04:57:12;2.20;99.90
15937;DHT22;9163;48.818;8.976;2023-04-03T04:59:41;2.10;99.90
15937;DHT22;9163;48.818;8.976;2023-04-03T05:02:08;2.20;99.90
15937;DHT22;9163;48.818;8.976;2023-04-03T05:04:36;2.20;99.90
15937;DHT22;9163;48.818;8.976;2023-04-03T05:07:03;2.10;99.90
15937;DHT22;9163;48.818;8.976;2023-04-03T05:09:31;2.10;99.90
15937;DHT22;9163;48.818;8.976;2023-04-03T05:11:58;2.10;99.90
15937;DHT22;9163;48.818;8.976;2023-04-03T05:14:25;2.10;99.90
15937;DHT22;9163;48.818;8.976;2023-04-03T05:16:54;2.10;99.90
15937;DHT22;9163;48.818;8.976;2023-04-03T05:19:21;2.10;99.90
15937;DHT22;9163;48.818;8.976;2023-04-03T05:21:49;2.10;99.90
15937;DHT22;9163;48.818;8.976;2023-04-03T05:24:16;2.20;99.90
15937;DHT22;9163;48.818;8.976;2023-04-03T05:26:44;2.20;99.90
15937;DHT22;9163;48.818;8.976;2023-04-03T05:29:11;2.20;99.90
15937;DHT22;9163;48.818;8.976;2023-04-03T05:31:38;2.20;99.90
15937;DHT22;9163;48.818;8.976;2023-04-03T05:34:07;2.20;99.90
15937;DHT22;9163;48.818;8.976;2023-04-03T05:36:34;2.20;99.90
15937;DHT22;9163;48.818;8.976;2023-04-03T05:39:01;2.20;99.90
15937;DHT22;9163;48.818;8.976;2023-04-03T05:41:29;2.30;99.90
15937;DHT22;9163;48.818;8.976;2023-04-03T05:43:57;2.30;99.90
15937;DHT22;9163;48.818;8.976;2023-04-03T05:46:24;2.30;99.90
15937;DHT22;9163;48.818;8.976;2023-04-03T05:48:51;2.30;99.90
15937;DHT22;9163;48.818;8.976;2023-04-03T05:51:22;2.30;99.90
15937;DHT22;9163;48.818;8.976;2023-04-03T05:53:56;2.30;99.90
15937;DHT22;9163;48.818;8.976;2023-04-03T05:56:25;2.40;99.90
15937;DHT22;9163;48.818;8.976;2023-04-03T05:58:53;2.40;99.90
15937;DHT22;9163;48.818;8.976;2023-04-03T06:01:21;2.50;99.90
15937;DHT22;9163;48.818;8.976;2023-04-03T06:03:49;2.50;99.90
15937;DHT22;9163;48.818;8.976;2023-04-03T06:06:16;2.60;99.90
15937;DHT22;9163;48.818;8.976;2023-04-03T06:08:45;2.60;99.90
15937;DHT22;9163;48.818;8.976;2023-04-03T06:11:12;2.70;99.90
15937;DHT22;9163;48.818;8.976;2023-04-03T06:13:39;2.80;99.90
15937;DHT22;9163;48.818;8.976;2023-04-03T06:16:08;2.80;99.90
15937;DHT22;9163;48.818;8.976;2023-04-03T06:18:35;2.80;99.90
15937;DHT22;9163;48.818;8.976;2023-04-03T06:21:03;2.90;99.90
15937;DHT22;9163;48.818;8.976;2023-04-03T06:23:30;3.00;99.90
15937;DHT22;9163;48.818;8.976;2023-04-03T06:26:00;3.10;99.90
15937;DHT22;9163;48.818;8.976;2023-04-03T06:28:27;3.20;99.90
15937;DHT22;9163;48.818;8.976;2023-04-03T06:30:54;3.20;99.90
15937;DHT22;9163;48.818;8.976;2023-04-03T06:33:21;3.20;99.90
15937;DHT22;9163;48.818;8.976;2023-04-03T06:35:49;3.30;99.90
15937;DHT22;9163;48.818;8.976;2023-04-03T06:38:16;3.40;99.90
15937;DHT22;9163;48.818;8.976;2023-04-03T06:40:44;3.50;99.90
15937;DHT22;9163;48.818;8.976;2023-04-03T06:43:13;3.50;99.90
15937;DHT22;9163;48.818;8.976;2023-04-03T06:45:40;3.50;99.90
15937;DHT22;9163;48.818;8.976;2023-04-03T06:48:07;3.50;99.90
15937;DHT22;9163;48.818;8.976;2023-04-03T06:50:35;3.60;99.90
15937;DHT22;9163;48.818;8.976;2023-04-03T06:53:02;3.60;99.90
15937;DHT22;9163;48.818;8.976;2023-04-03T06:55:31;3.60;99.90
15937;DHT22;9163;48.818;8.976;2023-04-03T06:57:59;3.60;99.90
15937;DHT22;9163;48.818;8.976;2023-04-03T07:00:27;3.50;99.90
15937;DHT22;9163;48.818;8.976;2023-04-03T07:02:55;3.50;99.90
15937;DHT22;9163;48.818;8.976;2023-04-03T07:05:23;3.60;99.90
15937;DHT22;9163;48.818;8.976;2023-04-03T07:07:51;3.70;99.90
15937;DHT22;9163;48.818;8.976;2023-04-03T07:10:18;3.80;99.90
15937;DHT22;9163;48.818;8.976;2023-04-03T07:12:46;3.80;99.90
15937;DHT22;9163;48.818;8.976;2023-04-03T07:15:13;3.80;99.90
15937;DHT22;9163;48.818;8.976;2023-04-03T07:17:42;3.70;99.90
15937;DHT22;9163;48.818;8.976;2023-04-03T07:20:10;3.70;99.90
15937;DHT22;9163;48.818;8.976;2023-04-03T07:22:37;3.80;99.90
15937;DHT22;9163;48.818;8.976;2023-04-03T07:25:06;3.90;99.90
15937;DHT22;9163;48.818;8.976;2023-04-03T07:27:33;4.00;99.90
15937;DHT22;9163;48.818;8.976;2023-04-03T07:30:01;4.00;99.90
15937;DHT22;9163;48.818;8.976;2023-04-03T07:32:29;4.20;99.90
15937;DHT22;9163;48.818;8.976;2023-04-03T07:34:58;4.30;99.90
15937;DHT22;9163;48.818;8.976;2023-04-03T07:37:25;4.40;99.90
15937;DHT22;9163;48.818;8.976;2023-04-03T07:39:52;4.40;99.90
15937;DHT22;9163;48.818;8.976;2023-04-03T07:42:21;4.60;99.90
15937;DHT22;9163;48.818;8.976;2023-04-03T07:44:48;4.70;99.90
15937;DHT22;9163;48.818;8.976;2023-04-03T07:47:15;4.80;99.90
15937;DHT22;9163;48.818;8.976;2023-04-03T07:49:44;4.70;99.90
15937;DHT22;9163;48.818;8.976;2023-04-03T07:52:12;4.90;99.90
15937;DHT22;9163;48.818;8.976;2023-04-03T07:54:40;4.90;99.90
15937;DHT22;9163;48.818;8.976;2023-04-03T07:57:08;4.90;99.90
15937;DHT22;9163;48.818;8.976;2023-04-03T07:59:35;5.00;99.90
15937;DHT22;9163;48.818;8.976;2023-04-03T08:02:02;5.10;99.90
15937;DHT22;9163;48.818;8.976;2023-04-03T08:04:31;5.20;99.90
15937;DHT22;9163;48.818;8.976;2023-04-03T08:06:58;5.40;99.90
15937;DHT22;9163;48.818;8.976;2023-04-03T08:09:27;5.50;99.90
15937;DHT22;9163;48.818;8.976;2023-04-03T08:11:54;5.40;93.40
15937;DHT22;9163;48.818;8.976;2023-04-03T08:14:21;5.40;98.20
15937;DHT22;9163;48.818;8.976;2023-04-03T08:16:48;5.50;97.60
15937;DHT22;9163;48.818;8.976;2023-04-03T08:19:16;5.50;98.30
15937;DHT22;9163;48.818;8.976;2023-04-03T08:21:44;5.60;97.80
15937;DHT22;9163;48.818;8.976;2023-04-03T08:24:11;5.70;94.50
15937;DHT22;9163;48.818;8.976;2023-04-03T08:26:40;6.20;95.40
15937;DHT22;9163;48.818;8.976;2023-04-03T08:29:07;6.20;68.90
15937;DHT22;9163;48.818;8.976;2023-04-03T08:31:34;6.20;54.80
15937;DHT22;9163;48.818;8.976;2023-04-03T08:34:03;6.00;54.20
15937;DHT22;9163;48.818;8.976;2023-04-03T08:36:31;5.80;50.30
15937;DHT22;9163;48.818;8.976;2023-04-03T08:38:58;5.90;74.50
15937;DHT22;9163;48.818;8.976;2023-04-03T08:41:30;6.10;65.80
15937;DHT22;9163;48.818;8.976;2023-04-03T08:44:14;6.10;62.90
15937;DHT22;9163;48.818;8.976;2023-04-03T08:46:52;6.10;55.10
15937;DHT22;9163;48.818;8.976;2023-04-03T08:49:26;6.20;50.70
15937;DHT22;9163;48.818;8.976;2023-04-03T08:51:54;6.40;44.20
15937;DHT22;9163;48.818;8.976;2023-04-03T08:54:30;6.60;36.40
15937;DHT22;9163;48.818;8.976;2023-04-03T08:57:02;6.80;40.60
15937;DHT22;9163;48.818;8.976;2023-04-03T08:59:34;7.20;28.50
15937;DHT22;9163;48.818;8.976;2023-04-03T09:02:04;7.70;19.90
15937;DHT22;9163;48.818;8.976;2023-04-03T09:04:38;7.80;5.40
15937;DHT22;9163;48.818;8.976;2023-04-03T09:07:10;7.70;1.00
15937;DHT22;9163;48.818;8.976;2023-04-03T09:09:41;7.70;1.00
15937;DHT22;9163;48.818;8.976;2023-04-03T09:12:17;7.80;1.00
15937;DHT22;9163;48.818;8.976;2023-04-03T09:14:53;7.90;1.00
15937;DHT22;9163;48.818;8.976;2023-04-03T09:17:33;8.00;1.00
15937;DHT22;9163;48.818;8.976;2023-04-03T09:20:16;7.90;1.00
15937;DHT22;9163;48.818;8.976;2023-04-03T09:22:44;7.90;1.00
15937;DHT22;9163;48.818;8.976;2023-04-03T09:25:14;7.80;1.00
15937;DHT22;9163;48.818;8.976;2023-04-03T09:27:43;7.90;1.00
15937;DHT22;9163;48.818;8.976;2023-04-03T09:30:15;8.00;1.00
15937;DHT22;9163;48.818;8.976;2023-04-03T09:32:44;8.20;1.00
15937;DHT22;9163;48.818;8.976;2023-04-03T09:35:23;8.10;1.00
15937;DHT22;9163;48.818;8.976;2023-04-03T09:37:52;8.00;1.00
15937;DHT22;9163;48.818;8.976;2023-04-03T09:40:41;7.90;1.00
15937;DHT22;9163;48.818;8.976;2023-04-03T09:43:26;7.70;1.00
15937;DHT22;9163;48.818;8.976;2023-04-03T09:45:56;7.70;1.00
15937;DHT22;9163;48.818;8.976;2023-04-03T09:48:24;7.60;1.00
15937;DHT22;9163;48.818;8.976;2023-04-03T09:50:56;7.30;1.00
15937;DHT22;9163;48.818;8.976;2023-04-03T09:53:28;7.20;1.00
15937;DHT22;9163;48.818;8.976;2023-04-03T09:55:56;7.30;1.00
15937;DHT22;9163;48.818;8.976;2023-04-03T09:58:26;7.30;1.00
15937;DHT22;9163;48.818;8.976;2023-04-03T10:00:57;7.20;1.00
15937;DHT22;9163;48.818;8.976;2023-04-03T10:03:28;7.30;1.00
15937;DHT22;9163;48.818;8.976;2023-04-03T10:05:58;7.30;1.00
15937;DHT22;9163;48.818;8.976;2023-04-03T10:08:28;7.40;1.00
15937;DHT22;9163;48.818;8.976;2023-04-03T10:11:14;7.50;1.00
15937;DHT22;9163;48.818;8.976;2023-04-03T10:13:55;7.50;1.00
15937;DHT22;9163;48.818;8.976;2023-04-03T10:16:31;7.40;1.00
15937;DHT22;9163;48.818;8.976;2023-04-03T10:19:10;7.30;1.00
15937;DHT22;9163;48.818;8.976;2023-04-03T10:21:45;7.20;1.00
15937;DHT22;9163;48.818;8.976;2023-04-03T10:24:17;7.20;1.00
15937;DHT22;9163;48.818;8.976;2023-04-03T10:26:54;6.90;1.00
15937;DHT22;9163;48.818;8.976;2023-04-03T10:29:31;6.90;1.00
15937;DHT22;9163;48.818;8.976;2023-04-03T10:32:13;6.80;1.00
15937;DHT22;9163;48.818;8.976;2023-04-03T10:34:44;7.00;1.00
15937;DHT22;9163;48.818;8.976;2023-04-03T10:37:17;7.10;1.00
15937;DHT22;9163;48.818;8.976;2023-04-03T10:39:56;7.10;1.00
15937;DHT22;9163;48.818;8.976;2023-04-03T10:42:28;7.20;1.00
15937;DHT22;9163;48.818;8.976;2023-04-03T10:45:17;7.00;1.00
15937;DHT22;9163;48.818;8.976;2023-04-03T10:47:55;7.10;1.00
15937;DHT22;9163;48.818;8.976;2023-04-03T10:50:31;7.20;1.00
15937;DHT22;9163;48.818;8.976;2023-04-03T10:53:06;7.00;1.00
15937;DHT22;9163;48.818;8.976;2023-04-03T10:55:38;6.90;1.00
15937;DHT22;9163;48.818;8.976;2023-04-03T10:58:18;6.80;1.00
15937;DHT22;9163;48.818;8.976;2023-04-03T11:00:48;6.90;1.00
15937;DHT22;9163;48.818;8.976;2023-04-03T11:03:27;6.90;1.00
15937;DHT22;9163;48.818;8.976;2023-04-03T11:05:56;6.80;1.00
15937;DHT22;9163;48.818;8.976;2023-04-03T11:08:27;6.80;1.00
15937;DHT22;9163;48.818;8.976;2023-04-03T11:10:59;6.70;1.00
15937;DHT22;9163;48.818;8.976;2023-04-03T11:13:30;6.60;1.00
15937;DHT22;9163;48.818;8.976;2023-04-03T11:16:00;6.60;1.00
15937;DHT22;9163;48.818;8.976;2023-04-03T11:18:35;6.60;1.00
15937;DHT22;9163;48.818;8.976;2023-04-03T11:21:07;6.50;1.00
15937;DHT22;9163;48.818;8.976;2023-04-03T11:23:40;6.50;1.00
15937;DHT22;9163;48.818;8.976;2023-04-03T11:26:10;6.50;1.00
15937;DHT22;9163;48.818;8.976;2023-04-03T11:28:39;6.50;1.00
15937;DHT22;9163;48.818;8.976;2023-04-03T11:31:25;6.50;1.00
15937;DHT22;9163;48.818;8.976;2023-04-03T11:34:06;6.50;1.00
15937;DHT22;9163;48.818;8.976;2023-04-03T11:36:40;6.60;1.00
15937;DHT22;9163;48.818;8.976;2023-04-03T11:39:18;6.70;1.00
15937;DHT22;9163;48.818;8.976;2023-04-03T11:41:47;6.90;1.00
15937;DHT22;9163;48.818;8.976;2023-04-03T11:44:33;6.90;1.00
15937;DHT22;9163;48.818;8.976;2023-04-03T11:47:08;6.90;1.00
15937;DHT22;9163;48.818;8.976;2023-04-03T11:49:57;6.90;1.00
15937;DHT22;9163;48.818;8.976;2023-04-03T11:52:59;6.80;1.00
15937;DHT22;9163;48.818;8.976;2023-04-03T11:55:43;6.90;1.00
15937;DHT22;9163;48.818;8.976;2023-04-03T11:58:15;6.90;1.00
15937;DHT22;9163;48.818;8.976;2023-04-03T12:00:54;6.80;1.00
15937;DHT22;9163;48.818;8.976;2023-04-03T12:03:56;6.70;1.00
15937;DHT22;9163;48.818;8.976;2023-04-03T12:10:17;6.90;1.00
15937;DHT22;9163;48.818;8.976;2023-04-03T12:13:12;7.00;1.00
15937;DHT22;9163;48.818;8.976;2023-04-03T12:15:54;7.00;1.00
15937;DHT22;9163;48.818;8.976;2023-04-03T12:18:41;7.00;1.00
15937;DHT22;9163;48.818;8.976;2023-04-03T12:21:09;7.20;1.00
15937;DHT22;9163;48.818;8.976;2023-04-03T12:23:58;7.20;1.00
15937;DHT22;9163;48.818;8.976;2023-04-03T12:26:27;7.30;1.00
15937;DHT22;9163;48.818;8.976;2023-04-03T12:28:55;7.30;1.00
15937;DHT22;9163;48.818;8.976;2023-04-03T12:31:25;7.50;1.00
15937;DHT22;9163;48.818;8.976;2023-04-03T12:34:09;7.50;1.00
15937;DHT22;9163;48.818;8.976;2023-04-03T12:36:47;7.50;1.00
15937;DHT22;9163;48.818;8.976;2023-04-03T12:39:36;7.80;1.00
15937;DHT22;9163;48.818;8.976;2023-04-03T12:45:10;8.20;1.00
15937;DHT22;9163;48.818;8.976;2023-04-03T12:47:43;8.40;1.00
15937;DHT22;9163;48.818;8.976;2023-04-03T12:50:21;8.70;1.00
15937;DHT22;9163;48.818;8.976;2023-04-03T12:52:54;9.10;1.00
15937;DHT22;9163;48.818;8.976;2023-04-03T12:55:23;9.40;1.00
15937;DHT22;9163;48.818;8.976;2023-04-03T12:57:52;9.40;1.00
15937;DHT22;9163;48.818;8.976;2023-04-03T13:00:31;9.60;1.00
15937;DHT22;9163;48.818;8.976;2023-04-03T13:02:59;9.70;1.00
15937;DHT22;9163;48.818;8.976;2023-04-03T13:05:28;10.00;1.00
15937;DHT22;9163;48.818;8.976;2023-04-03T13:07:59;10.10;1.00
15937;DHT22;9163;48.818;8.976;2023-04-03T13:10:27;10.10;1.00
15937;DHT22;9163;48.818;8.976;2023-04-03T13:12:58;9.90;10.10
15937;DHT22;9163;48.818;8.976;2023-04-03T13:15:27;9.80;6.80
15937;DHT22;9163;48.818;8.976;2023-04-03T13:17:55;9.70;1.00
15937;DHT22;9163;48.818;8.976;2023-04-03T13:20:26;9.40;1.00
15937;DHT22;9163;48.818;8.976;2023-04-03T13:22:57;9.30;1.00
15937;DHT22;9163;48.818;8.976;2023-04-03T13:25:29;9.00;1.00
15937;DHT22;9163;48.818;8.976;2023-04-03T13:28:01;8.80;1.00
15937;DHT22;9163;48.818;8.976;2023-04-03T13:30:30;8.60;1.00
15937;DHT22;9163;48.818;8.976;2023-04-03T13:33:01;8.50;1.00
15937;DHT22;9163;48.818;8.976;2023-04-03T13:35:36;8.40;1.00
15937;DHT22;9163;48.818;8.976;2023-04-03T13:38:07;8.40;1.00
15937;DHT22;9163;48.818;8.976;2023-04-03T13:40:48;8.40;1.00
15937;DHT22;9163;48.818;8.976;2023-04-03T13:43:20;8.20;1.00
15937;DHT22;9163;48.818;8.976;2023-04-03T13:45:57;8.00;1.00
15937;DHT22;9163;48.818;8.976;2023-04-03T13:48:25;8.00;1.00
15937;DHT22;9163;48.818;8.976;2023-04-03T13:50:59;8.00;1.00
15937;DHT22;9163;48.818;8.976;2023-04-03T13:53:28;8.00;1.00
15937;DHT22;9163;48.818;8.976;2023-04-03T13:56:00;8.00;1.00
15937;DHT22;9163;48.818;8.976;2023-04-03T13:58:33;7.90;1.00
15937;DHT22;9163;48.818;8.976;2023-04-03T14:01:08;8.10;1.00
15937;DHT22;9163;48.818;8.976;2023-04-03T14:03:42;8.30;1.00
15937;DHT22;9163;48.818;8.976;2023-04-03T14:06:11;8.40;1.00
15937;DHT22;9163;48.818;8.976;2023-04-03T14:08:38;8.60;1.00
15937;DHT22;9163;48.818;8.976;2023-04-03T14:11:12;8.50;1.00
15937;DHT22;9163;48.818;8.976;2023-04-03T14:13:43;8.60;1.00
15937;DHT22;9163;48.818;8.976;2023-04-03T14:16:14;8.70;1.00
15937;DHT22;9163;48.818;8.976;2023-04-03T14:18:43;8.80;1.00
15937;DHT22;9163;48.818;8.976;2023-04-03T14:21:12;8.70;1.00
15937;DHT22;9163;48.818;8.976;2023-04-03T14:23:39;8.60;1.00
15937;DHT22;9163;48.818;8.976;2023-04-03T14:26:11;8.50;1.00
15937;DHT22;9163;48.818;8.976;2023-04-03T14:28:39;8.30;1.00
15937;DHT22;9163;48.818;8.976;2023-04-03T14:31:09;8.30;1.00
15937;DHT22;9163;48.818;8.976;2023-04-03T14:33:37;8.30;1.00
15937;DHT22;9163;48.818;8.976;2023-04-03T14:36:12;8.30;1.00
15937;DHT22;9163;48.818;8.976;2023-04-03T14:38:40;8.40;1.00
15937;DHT22;9163;48.818;8.976;2023-04-03T14:41:08;8.30;1.00
15937;DHT22;9163;48.818;8.976;2023-04-03T14:43:37;8.30;1.00
15937;DHT22;9163;48.818;8.976;2023-04-03T14:46:04;8.20;1.00
15937;DHT22;9163;48.818;8.976;2023-04-03T14:48:33;8.30;1.00
15937;DHT22;9163;48.818;8.976;2023-04-03T14:51:01;8.50;1.00
15937;DHT22;9163;48.818;8.976;2023-04-03T14:53:28;8.60;1.00
15937;DHT22;9163;48.818;8.976;2023-04-03T14:55:56;8.60;1.00
15937;DHT22;9163;48.818;8.976;2023-04-03T14:58:24;8.50;1.00
15937;DHT22;9163;48.818;8.976;2023-04-03T15:00:51;8.40;1.00
15937;DHT22;9163;48.818;8.976;2023-04-03T15:03:20;8.20;1.00
15937;DHT22;9163;48.818;8.976;2023-04-03T15:05:49;8.20;1.00
15937;DHT22;9163;48.818;8.976;2023-04-03T15:08:19;8.40;1.00
15937;DHT22;9163;48.818;8.976;2023-04-03T15:10:47;8.40;1.00
15937;DHT22;9163;48.818;8.976;2023-04-03T15:13:15;8.20;1.00
15937;DHT22;9163;48.818;8.976;2023-04-03T15:15:43;8.10;1.00
15937;DHT22;9163;48.818;8.976;2023-04-03T15:18:17;8.00;1.00
15937;DHT22;9163;48.818;8.976;2023-04-03T15:20:45;8.20;1.00
15937;DHT22;9163;48.818;8.976;2023-04-03T15:23:16;8.10;1.00
15937;DHT22;9163;48.818;8.976;2023-04-03T15:25:44;8.30;1.00
15937;DHT22;9163;48.818;8.976;2023-04-03T15:28:18;8.10;1.00
15937;DHT22;9163;48.818;8.976;2023-04-03T15:30:46;8.10;1.00
15937;DHT22;9163;48.818;8.976;2023-04-03T15:33:13;8.20;1.00
15937;DHT22;9163;48.818;8.976;2023-04-03T15:35:41;8.10;1.00
15937;DHT22;9163;48.818;8.976;2023-04-03T15:38:08;8.10;1.00
15937;DHT22;9163;48.818;8.976;2023-04-03T15:40:37;7.90;1.00
15937;DHT22;9163;48.818;8.976;2023-04-03T15:43:06;7.80;1.00
15937;DHT22;9163;48.818;8.976;2023-04-03T15:45:34;7.80;1.00
15937;DHT22;9163;48.818;8.976;2023-04-03T15:48:02;8.00;1.00
15937;DHT22;9163;48.818;8.976;2023-04-03T15:50:31;8.10;1.00
15937;DHT22;9163;48.818;8.976;2023-04-03T15:52:58;8.20;1.00
15937;DHT22;9163;48.818;8.976;2023-04-03T15:55:28;8.10;1.00
15937;DHT22;9163;48.818;8.976;2023-04-03T15:57:58;8.20;1.00
15937;DHT22;9163;48.818;8.976;2023-04-03T16:00:26;8.10;1.00
15937;DHT22;9163;48.818;8.976;2023-04-03T16:02:55;7.70;1.00
15937;DHT22;9163;48.818;8.976;2023-04-03T16:05:25;7.40;1.00
15937;DHT22;9163;48.818;8.976;2023-04-03T16:07:52;7.10;1.00
15937;DHT22;9163;48.818;8.976;2023-04-03T16:10:21;7.00;1.00
15937;DHT22;9163;48.818;8.976;2023-04-03T16:12:48;6.90;1.00
15937;DHT22;9163;48.818;8.976;2023-04-03T16:15:17;7.00;1.00
15937;DHT22;9163;48.818;8.976;2023-04-03T16:17:44;7.10;1.00
15937;DHT22;9163;48.818;8.976;2023-04-03T16:20:14;7.10;1.00
15937;DHT22;9163;48.818;8.976;2023-04-03T16:22:42;7.10;1.00
15937;DHT22;9163;48.818;8.976;2023-04-03T16:25:10;6.90;1.00
15937;DHT22;9163;48.818;8.976;2023-04-03T16:27:38;6.80;1.00
15937;DHT22;9163;48.818;8.976;2023-04-03T16:30:06;6.70;1.00
15937;DHT22;9163;48.818;8.976;2023-04-03T16:32:37;6.60;1.00
15937;DHT22;9163;48.818;8.976;2023-04-03T16:35:05;6.60;1.00
15937;DHT22;9163;48.818;8.976;2023-04-03T16:37:33;6.70;1.00
15937;DHT22;9163;48.818;8.976;2023-04-03T16:40:00;6.80;1.00